createdAt,value
2023-03-02T09:26:38.291Z,6.85
2023-03-02T09:28:41.217Z,6.85
2023-03-02T09:30:49.142Z,6.59
2023-03-02T09:32:51.611Z,6.82
2023-03-02T09:34:54.510Z,7.00
2023-03-02T09:36:56.888Z,7.08
2023-03-02T09:38:59.264Z,7.18
2023-03-02T09:41:20.308Z,7.26
2023-03-02T09:43:45.589Z,7.44
2023-03-02T09:46:09.461Z,7.56
2023-03-02T09:48:28.403Z,7.68
2023-03-02T09:50:37.116Z,7.64
2023-03-02T09:52:54.752Z,7.50
2023-03-02T09:55:04.531Z,7.53
2023-03-02T09:57:32.204Z,7.69
2023-03-02T09:59:48.786Z,7.73
2023-03-02T10:02:01.421Z,7.89
2023-03-02T10:04:13.947Z,8.12
2023-03-02T10:06:16.355Z,8.42
2023-03-02T10:08:22.606Z,8.43
2023-03-02T10:10:40.890Z,8.48
2023-03-02T10:13:00.004Z,8.42
2023-03-02T10:15:15.981Z,8.44
2023-03-02T10:18:00.770Z,8.41
2023-03-02T10:20:09.517Z,8.46
2023-03-02T10:22:32.914Z,8.46
2023-03-02T10:24:40.647Z,8.49
2023-03-02T10:26:52.021Z,8.65
2023-03-02T10:29:03.107Z,8.72
2023-03-02T10:31:27.814Z,8.74
2023-03-02T10:33:31.220Z,8.91
2023-03-02T10:35:34.711Z,9.05
2023-03-02T10:37:37.684Z,9.23
2023-03-02T10:39:40.021Z,9.02
2023-03-02T10:41:51.767Z,9.09
2023-03-02T10:43:59.373Z,9.20
2023-03-02T10:46:08.653Z,9.11
2023-03-02T10:48:13.901Z,9.20
2023-03-02T10:50:24.100Z,9.03
2023-03-02T10:52:28.741Z,8.92
2023-03-02T10:54:33.565Z,9.38
2023-03-02T10:56:36.560Z,9.33
2023-03-02T10:58:38.930Z,9.40
2023-03-02T11:00:41.270Z,9.53
2023-03-02T11:02:55.146Z,9.61
2023-03-02T11:05:10.667Z,9.79
2023-03-02T11:07:22.182Z,10.10
2023-03-02T11:11:32.780Z,10.20
2023-03-02T11:13:37.607Z,10.36
2023-03-02T11:15:46.059Z,10.29
2023-03-02T11:17:53.857Z,10.29
2023-03-02T11:19:56.479Z,10.27
2023-03-02T11:22:02.844Z,10.52
2023-03-02T11:24:23.763Z,10.73
2023-03-02T11:26:32.371Z,10.93
2023-03-02T11:28:43.906Z,11.06
2023-03-02T11:30:50.666Z,11.23
2023-03-02T11:33:07.989Z,12.12
2023-03-02T11:35:31.401Z,13.12
2023-03-02T11:37:48.110Z,14.63
2023-03-02T11:39:55.516Z,16.54
2023-03-02T11:41:58.729Z,18.06
2023-03-02T11:44:14.202Z,19.75
2023-03-02T11:46:27.062Z,21.08
2023-03-02T11:48:55.798Z,22.42
2023-03-02T11:51:22.113Z,22.89
2023-03-02T11:53:30.183Z,24.16
2023-03-02T11:55:40.590Z,23.65
2023-03-02T11:57:49.645Z,23.58
2023-03-02T11:59:54.107Z,23.02
2023-03-02T12:01:59.648Z,23.31
2023-03-02T12:04:24.272Z,24.45
2023-03-02T12:06:29.842Z,23.00
2023-03-02T12:08:40.110Z,22.71
2023-03-02T12:10:55.470Z,23.16
2023-03-02T12:13:13.138Z,23.69
2023-03-02T12:15:42.535Z,22.24
2023-03-02T12:17:45.217Z,23.42
2023-03-02T12:19:48.424Z,23.26
2023-03-02T12:21:59.747Z,25.54
2023-03-02T12:24:04.103Z,25.54
2023-03-02T12:26:24.486Z,25.92
2023-03-02T12:28:36.918Z,26.18
2023-03-02T12:30:39.626Z,26.71
2023-03-02T12:32:45.181Z,24.08
2023-03-02T12:35:02.995Z,22.97
2023-03-02T12:37:22.895Z,23.99
2023-03-02T12:39:45.114Z,24.83
2023-03-02T12:41:50.467Z,24.70
2023-03-02T12:44:05.348Z,24.32
2023-03-02T12:46:29.191Z,24.27
2023-03-02T12:48:41.891Z,25.13
2023-03-02T12:50:47.596Z,24.77
2023-03-02T12:53:01.671Z,23.01
2023-03-02T12:55:10.023Z,22.66
2023-03-02T12:57:20.477Z,22.16
2023-03-02T12:59:25.650Z,23.12
2023-03-02T13:01:30.661Z,23.50
2023-03-02T13:03:33.519Z,23.43
2023-03-02T13:05:36.511Z,23.49
2023-03-02T13:07:38.820Z,24.54
2023-03-02T13:09:47.717Z,23.81
2023-03-02T13:11:57.745Z,23.03
2023-03-02T13:14:03.657Z,21.61
2023-03-02T13:16:19.858Z,22.75
2023-03-02T13:18:24.468Z,22.83
2023-03-02T13:20:29.764Z,23.62
2023-03-02T13:22:32.861Z,23.27
2023-03-02T13:24:45.897Z,23.57
2023-03-02T13:26:57.262Z,22.76
2023-03-02T13:29:23.202Z,22.68
2023-03-02T13:31:25.759Z,22.82
2023-03-02T13:33:29.435Z,22.75
2023-03-02T13:35:35.684Z,23.24
2023-03-02T13:37:43.714Z,24.06
2023-03-02T13:39:55.375Z,23.56
2023-03-02T13:42:00.490Z,23.77
2023-03-02T13:44:22.059Z,24.23
2023-03-02T13:46:33.959Z,24.91
2023-03-02T13:48:37.049Z,23.59
2023-03-02T13:50:39.396Z,22.78
2023-03-02T13:52:41.781Z,22.16
2023-03-02T13:54:47.250Z,21.53
2023-03-02T13:56:51.351Z,21.66
2023-03-02T13:58:53.968Z,20.49
2023-03-02T14:00:57.035Z,20.17
2023-03-02T14:02:59.937Z,20.64
2023-03-02T14:05:02.355Z,20.64
2023-03-02T14:07:06.559Z,19.30
2023-03-02T14:09:09.349Z,17.96
2023-03-02T14:11:13.049Z,18.70
2023-03-02T14:13:19.961Z,19.04
2023-03-02T14:15:24.754Z,19.11
2023-03-02T14:17:27.176Z,18.31
2023-03-02T14:19:29.488Z,16.20
2023-03-02T14:21:33.777Z,15.38
2023-03-02T14:23:36.460Z,14.96
2023-03-02T14:25:38.847Z,14.77
2023-03-02T14:27:42.704Z,14.25
2023-03-02T14:29:46.663Z,14.05
2023-03-02T14:31:49.139Z,13.96
2023-03-02T14:33:52.108Z,13.52
2023-03-02T14:35:57.274Z,13.60
2023-03-02T14:37:59.778Z,13.39
2023-03-02T14:40:02.568Z,13.17
2023-03-02T14:42:06.709Z,13.35
2023-03-02T14:44:11.656Z,13.03
2023-03-02T14:46:14.510Z,13.01
2023-03-02T14:48:16.921Z,13.05
2023-03-02T14:50:19.432Z,12.95
2023-03-02T14:52:30.516Z,12.92
2023-03-02T14:54:48.291Z,12.94
2023-03-02T14:56:50.770Z,12.80
2023-03-02T14:58:54.288Z,12.78
2023-03-02T15:00:56.664Z,12.81
2023-03-02T15:02:59.447Z,12.85
2023-03-02T15:05:02.096Z,12.73
2023-03-02T15:07:04.496Z,12.81
2023-03-02T15:09:06.843Z,12.71
2023-03-02T15:11:09.612Z,12.73
2023-03-02T15:13:13.926Z,12.79
2023-03-02T15:15:16.675Z,12.36
2023-03-02T15:17:19.603Z,12.22
2023-03-02T15:19:22.208Z,12.21
2023-03-02T15:21:24.714Z,12.19
2023-03-02T15:23:27.516Z,12.26
2023-03-02T15:25:30.331Z,12.33
2023-03-02T15:27:32.703Z,12.26
2023-03-02T15:29:35.514Z,12.14
2023-03-02T15:31:38.028Z,11.96
2023-03-02T15:33:41.442Z,11.87
2023-03-02T15:35:44.495Z,11.89
2023-03-02T15:37:46.948Z,11.87
2023-03-02T15:39:54.333Z,11.74
2023-03-02T15:41:56.999Z,11.82
2023-03-02T15:43:59.873Z,11.71
2023-03-02T15:46:02.420Z,11.54
2023-03-02T15:48:05.519Z,11.57
2023-03-02T15:50:08.510Z,11.31
2023-03-02T15:52:12.019Z,11.24
2023-03-02T15:54:15.806Z,11.20
2023-03-02T15:56:18.193Z,11.16
2023-03-02T15:58:22.154Z,11.17
2023-03-02T16:00:25.038Z,11.16
2023-03-02T16:02:27.692Z,11.20
2023-03-02T16:04:31.654Z,11.20
2023-03-02T16:06:34.158Z,11.16
2023-03-02T16:08:37.357Z,11.14
2023-03-02T16:10:42.839Z,11.07
2023-03-02T16:12:45.664Z,11.02
2023-03-02T16:14:48.356Z,10.91
2023-03-02T16:16:51.757Z,10.89
2023-03-02T16:18:56.146Z,10.97
2023-03-02T16:20:59.462Z,10.95
2023-03-02T16:23:06.358Z,10.90
2023-03-02T16:25:09.323Z,10.73
2023-03-02T16:27:12.475Z,10.66
2023-03-02T16:29:15.101Z,10.67
2023-03-02T16:31:19.644Z,10.70
2023-03-02T16:33:22.963Z,10.55
2023-03-02T16:35:27.169Z,10.62
2023-03-02T16:37:29.868Z,10.48
2023-03-02T16:39:33.339Z,10.33
2023-03-02T16:41:36.974Z,10.44
2023-03-02T16:43:57.157Z,10.40
2023-03-02T16:46:00.249Z,10.30
2023-03-02T16:48:04.121Z,10.42
2023-03-02T16:50:07.528Z,10.32
2023-03-02T16:52:11.140Z,10.21
2023-03-02T16:54:17.057Z,10.15
2023-03-02T16:56:20.649Z,10.15
2023-03-02T16:58:24.692Z,10.24
2023-03-02T17:00:28.256Z,10.12
2023-03-02T17:02:30.916Z,10.08
2023-03-02T17:04:37.486Z,10.19
2023-03-02T17:06:59.569Z,10.10
2023-03-02T17:09:04.184Z,10.08
2023-03-02T17:11:07.685Z,10.01
2023-03-02T17:13:12.889Z,9.91
2023-03-02T17:15:15.589Z,9.93
2023-03-02T17:17:19.028Z,9.73
2023-03-02T17:19:21.693Z,9.71
2023-03-02T17:21:24.842Z,9.70
2023-03-02T17:23:28.382Z,9.59
2023-03-02T17:25:31.281Z,9.40
2023-03-02T17:27:33.913Z,9.28
2023-03-02T17:29:37.302Z,9.44
2023-03-02T17:31:40.041Z,9.25
2023-03-02T17:33:42.874Z,9.16
2023-03-02T17:35:46.622Z,9.09
2023-03-02T17:37:49.945Z,9.07
2023-03-02T17:39:52.749Z,8.81
2023-03-02T17:41:55.814Z,8.82
2023-03-02T17:43:58.899Z,8.79
2023-03-02T17:46:13.999Z,8.60
2023-03-02T17:48:17.057Z,8.50
2023-03-02T17:50:22.618Z,8.49
2023-03-02T17:52:26.230Z,8.49
2023-03-02T17:54:29.526Z,8.47
2023-03-02T17:56:34.475Z,8.43
2023-03-02T17:58:45.013Z,8.46
2023-03-02T18:00:49.099Z,8.48
2023-03-02T18:02:53.460Z,8.29
2023-03-02T18:04:56.407Z,8.28
2023-03-02T18:07:00.423Z,8.22
2023-03-02T18:09:07.331Z,8.24
2023-03-02T18:11:11.299Z,8.10
2023-03-02T18:13:14.129Z,8.14
2023-03-02T18:15:17.970Z,8.06
2023-03-02T18:17:20.956Z,7.98
2023-03-02T18:19:23.899Z,8.05
2023-03-02T18:21:28.534Z,7.90
2023-03-02T18:23:32.234Z,7.80
2023-03-02T18:25:35.512Z,7.75
2023-03-02T18:27:39.973Z,7.70
2023-03-02T18:29:44.245Z,7.63
2023-03-02T18:31:47.769Z,7.67
2023-03-02T18:33:52.112Z,7.51
2023-03-02T18:35:56.517Z,7.51
2023-03-02T18:38:05.220Z,7.59
2023-03-02T18:40:10.485Z,7.51
2023-03-02T18:42:14.310Z,7.57
2023-03-02T18:44:20.912Z,7.40
2023-03-02T18:46:27.147Z,7.32
2023-03-02T18:48:30.377Z,7.28
2023-03-02T18:50:33.858Z,7.28
2023-03-02T18:52:37.462Z,7.18
2023-03-02T18:54:40.450Z,7.11
2023-03-02T18:56:43.772Z,7.11
2023-03-02T18:58:50.130Z,7.14
2023-03-02T19:00:56.309Z,7.15
2023-03-02T19:02:59.573Z,7.07
2023-03-02T19:05:03.283Z,7.04
2023-03-02T19:07:07.165Z,7.01
2023-03-02T19:09:11.994Z,7.02
2023-03-02T19:11:20.209Z,7.03
2023-03-02T19:13:24.026Z,6.97
2023-03-02T19:15:26.929Z,7.02
2023-03-02T19:17:31.469Z,7.03
2023-03-02T19:19:36.010Z,6.97
2023-03-02T19:21:41.676Z,7.02
2023-03-02T19:23:46.554Z,7.04
2023-03-02T19:25:51.139Z,6.91
2023-03-02T19:27:55.009Z,6.85
2023-03-02T19:29:58.383Z,7.00
2023-03-02T19:32:02.244Z,6.89
2023-03-02T19:34:07.018Z,6.91
2023-03-02T19:36:11.977Z,6.99
2023-03-02T19:38:15.235Z,6.95
2023-03-02T19:40:21.897Z,6.87
2023-03-02T19:42:26.839Z,6.87
2023-03-02T19:44:30.545Z,6.88
2023-03-02T19:46:34.091Z,6.80
2023-03-02T19:48:38.576Z,6.79
2023-03-02T19:50:42.501Z,6.73
2023-03-02T19:52:45.775Z,6.71
2023-03-02T19:54:52.481Z,6.70
2023-03-02T19:56:57.829Z,6.66
2023-03-02T19:59:01.811Z,6.74
2023-03-02T20:01:09.430Z,6.72
2023-03-02T20:03:17.204Z,6.66
2023-03-02T20:05:21.529Z,6.72
2023-03-02T20:07:24.489Z,6.68
2023-03-02T20:09:28.693Z,6.62
2023-03-02T20:11:32.731Z,6.67
2023-03-02T20:13:36.511Z,6.64
2023-03-02T20:15:43.322Z,6.60
2023-03-02T20:17:46.865Z,6.55
2023-03-02T20:19:50.888Z,6.55
2023-03-02T20:21:55.151Z,6.63
2023-03-02T20:23:58.645Z,6.38
2023-03-02T20:26:01.649Z,6.44
2023-03-02T20:28:08.157Z,6.41
2023-03-02T20:30:16.850Z,6.44
2023-03-02T20:32:20.875Z,6.44
2023-03-02T20:34:24.928Z,6.45
2023-03-02T20:36:34.735Z,6.43
2023-03-02T20:38:44.193Z,6.39
2023-03-02T20:40:48.744Z,6.33
2023-03-02T20:42:52.927Z,6.23
2023-03-02T20:44:56.929Z,6.15
2023-03-02T20:47:04.144Z,6.13
2023-03-02T20:49:10.457Z,6.06
2023-03-02T20:51:13.979Z,5.95
2023-03-02T20:53:18.221Z,5.97
2023-03-02T20:55:22.405Z,5.93
2023-03-02T20:57:25.716Z,6.00
2023-03-02T20:59:29.177Z,5.88
2023-03-02T21:01:33.116Z,5.78
2023-03-02T21:03:36.558Z,5.81
2023-03-02T21:05:41.736Z,5.88
2023-03-02T21:07:45.492Z,5.82
2023-03-02T21:09:48.849Z,5.69
2023-03-02T21:11:52.824Z,5.75
2023-03-02T21:13:59.869Z,5.72
2023-03-02T21:16:03.851Z,5.60
2023-03-02T21:18:07.331Z,5.73
2023-03-02T21:20:11.877Z,5.69
2023-03-02T21:22:14.567Z,5.74
2023-03-02T21:24:20.225Z,5.72
2023-03-02T21:26:23.953Z,5.69
2023-03-02T21:28:26.839Z,5.77
2023-03-02T21:30:34.180Z,5.83
2023-03-02T21:32:36.962Z,5.81
2023-03-02T21:34:40.072Z,5.86
2023-03-02T21:36:43.616Z,5.86
2023-03-02T21:38:49.116Z,5.87
2023-03-02T21:40:51.743Z,5.89
2023-03-02T21:42:55.218Z,5.91
2023-03-02T21:44:57.521Z,5.80
2023-03-02T21:46:59.982Z,5.75
2023-03-02T21:49:02.908Z,5.74
2023-03-02T21:51:08.216Z,5.68
2023-03-02T21:53:10.648Z,5.66
2023-03-02T21:55:13.685Z,5.83
2023-03-02T21:57:16.266Z,5.78
2023-03-02T21:59:18.568Z,5.65
2023-03-02T22:01:21.956Z,5.81
2023-03-02T22:03:24.613Z,5.89
2023-03-02T22:05:27.806Z,5.97
2023-03-02T22:07:30.765Z,6.16
2023-03-02T22:09:33.445Z,6.07
2023-03-02T22:11:37.926Z,6.04
2023-03-02T22:13:40.522Z,6.05
2023-03-02T22:15:44.924Z,6.11
2023-03-02T22:17:47.232Z,6.12
2023-03-02T22:19:51.782Z,6.11
2023-03-02T22:21:56.293Z,6.08
2023-03-02T22:24:03.639Z,5.85
2023-03-02T22:26:14.703Z,5.98
2023-03-02T22:28:20.971Z,5.97
2023-03-02T22:30:23.999Z,5.76
2023-03-02T22:32:38.476Z,5.98
2023-03-02T22:34:43.765Z,6.12
2023-03-02T22:36:46.205Z,6.10
2023-03-02T22:38:48.986Z,6.07
2023-03-02T22:40:52.541Z,5.92
2023-03-02T22:43:08.556Z,5.93
2023-03-02T22:45:19.618Z,5.70
2023-03-02T22:47:22.289Z,5.84
2023-03-02T22:49:24.740Z,5.79
2023-03-02T22:51:30.792Z,5.76
2023-03-02T22:53:56.696Z,5.62
2023-03-02T22:56:03.972Z,5.75
2023-03-02T22:58:43.912Z,5.84
2023-03-02T23:00:48.010Z,5.73
2023-03-02T23:02:52.737Z,5.57
2023-03-02T23:04:55.038Z,5.54
2023-03-02T23:07:05.514Z,5.74
2023-03-02T23:09:08.300Z,5.71
2023-03-02T23:11:18.766Z,5.62
2023-03-02T23:13:25.163Z,5.58
2023-03-02T23:15:29.280Z,5.45
2023-03-02T23:17:35.995Z,5.32
2023-03-02T23:19:38.782Z,5.22
2023-03-02T23:21:46.066Z,5.18
2023-03-02T23:23:49.857Z,5.03
2023-03-02T23:25:52.537Z,5.00
2023-03-02T23:27:54.910Z,4.91
